Time;durP1;ratioP1;P1;durP2;ratioP2;P2;SDS_P1;SDS_P2;PMS_P1;PMS_P2;Temp;Humidity;BMP_temperature;BMP_pressure;BME280_temperature;BME280_humidity;BME280_pressure;Samples;Min_cycle;Max_cycle;Signal;HPM_P1;HPM_P2
2022/01/12 00:00:50;;;;;;;0.50;0.50;;;2.50;99.90;;;;;;5075748;28;20270;-78
2022/01/12 00:03:17;;;;;;;0.50;0.50;;;2.50;99.90;;;;;;5076569;28;20204;-79
2022/01/12 00:05:44;;;;;;;2.15;1.10;;;2.50;99.90;;;;;;5076013;28;20229;-78
2022/01/12 00:08:12;;;;;;;1.00;0.90;;;2.50;99.90;;;;;;5076452;28;20251;-78
2022/01/12 00:10:39;;;;;;;1.33;1.23;;;2.50;99.90;;;;;;5076049;28;20667;-78
2022/01/12 00:13:06;;;;;;;0.70;0.70;;;2.50;99.90;;;;;;5075737;28;20208;-78
2022/01/12 00:15:33;;;;;;;1.35;1.25;;;2.50;99.90;;;;;;5076722;28;20205;-79
2022/01/12 00:18:00;;;;;;;0.50;0.40;;;2.50;99.90;;;;;;5076459;28;20213;-79
2022/01/12 00:20:27;;;;;;;0.50;0.40;;;2.50;99.90;;;;;;5075021;28;20199;-76
2022/01/12 00:22:53;;;;;;;1.30;1.05;;;2.60;99.90;;;;;;5074998;28;20198;-77
2022/01/12 00:33:33;;;;;;;0.50;0.40;;;2.60;99.90;;;;;;5077714;28;20654;-78
2022/01/12 00:36:00;;;;;;;1.40;1.30;;;2.70;99.90;;;;;;5079717;28;20228;-78
2022/01/12 00:38:30;;;;;;;6.00;2.97;;;2.60;99.90;;;;;;5075328;28;20214;-77
2022/01/12 00:40:58;;;;;;;3.60;2.65;;;2.60;99.90;;;;;;5074896;28;20233;-79
2022/01/12 00:43:29;;;;;;;0.50;0.40;;;2.60;99.90;;;;;;5075118;28;20198;-79
2022/01/12 00:45:56;;;;;;;0.50;0.40;;;2.60;99.90;;;;;;5075766;28;20221;-79
2022/01/12 00:48:23;;;;;;;0.73;0.73;;;2.60;99.90;;;;;;5076653;28;20568;-78
2022/01/12 00:50:50;;;;;;;0.50;0.40;;;2.60;99.90;;;;;;5076244;28;20205;-79
2022/01/12 00:53:17;;;;;;;0.95;0.95;;;2.60;99.90;;;;;;5076413;28;20217;-79
2022/01/12 00:55:44;;;;;;;1.77;1.23;;;2.60;99.90;;;;;;5076705;28;20241;-79
2022/01/12 00:58:13;;;;;;;1.27;1.17;;;2.50;99.90;;;;;;5075776;28;20280;-79
2022/01/12 01:00:40;;;;;;;0.50;0.50;;;2.50;99.90;;;;;;5076112;28;20278;-80
2022/01/12 01:03:08;;;;;;;0.88;0.88;;;2.50;99.90;;;;;;5075811;28;20197;-79
2022/01/12 01:05:34;;;;;;;2.65;1.08;;;2.40;99.90;;;;;;5076084;28;20193;-80
2022/01/12 01:08:02;;;;;;;0.50;0.40;;;2.50;99.90;;;;;;5075499;28;20197;-80
2022/01/12 01:10:41;;;;;;;1.13;0.80;;;2.50;99.90;;;;;;5075127;28;20221;-79
2022/01/12 01:13:08;;;;;;;1.90;1.80;;;2.50;99.90;;;;;;5075864;28;20249;-79
2022/01/12 01:15:55;;;;;;;1.50;1.40;;;2.60;99.90;;;;;;5075604;28;20251;-79
2022/01/12 01:26:38;;;;;;;0.50;0.50;;;2.80;99.90;;;;;;5075439;28;20213;-78
2022/01/12 01:29:05;;;;;;;3.03;1.38;;;2.80;99.90;;;;;;5075212;28;20193;-79
2022/01/12 01:31:35;;;;;;;0.50;0.50;;;2.80;99.90;;;;;;5075140;28;20202;-79
2022/01/12 01:34:08;;;;;;;1.40;1.40;;;2.80;99.90;;;;;;5075044;28;20194;-79
2022/01/12 01:36:36;;;;;;;0.80;0.80;;;2.80;99.90;;;;;;5075071;28;20611;-79
2022/01/12 01:39:04;;;;;;;1.50;1.40;;;2.80;99.90;;;;;;5074226;28;20210;-80
2022/01/12 01:41:31;;;;;;;1.48;1.40;;;2.80;99.90;;;;;;5074839;28;20204;-79
2022/01/12 01:44:32;;;;;;;0.60;0.60;;;2.80;99.90;;;;;;5075027;28;20197;-79
2022/01/12 01:55:12;;;;;;;0.60;0.52;;;2.80;99.90;;;;;;5073617;28;20222;-79
2022/01/12 01:57:40;;;;;;;0.82;0.82;;;2.80;99.90;;;;;;5073541;28;20218;-79
2022/01/12 02:00:09;;;;;;;0.75;0.75;;;2.80;99.90;;;;;;5073218;28;20691;-79
2022/01/12 02:02:37;;;;;;;0.85;0.75;;;2.90;99.90;;;;;;5073797;28;20190;-79
2022/01/12 02:05:05;;;;;;;1.10;1.10;;;2.90;99.90;;;;;;5073825;28;20202;-78
2022/01/12 02:07:33;;;;;;;1.05;1.05;;;2.90;99.90;;;;;;5073038;28;20709;-79
2022/01/12 02:10:00;;;;;;;4.25;1.63;;;2.90;99.90;;;;;;5072989;28;20279;-78
2022/01/12 02:12:28;;;;;;;1.35;1.13;;;2.90;99.90;;;;;;5073430;28;20178;-79
2022/01/12 02:14:55;;;;;;;2.35;1.70;;;2.90;99.90;;;;;;5073278;28;20194;-79
2022/01/12 02:17:25;;;;;;;1.20;1.17;;;2.80;99.90;;;;;;5073402;28;20214;-78
2022/01/12 02:20:10;;;;;;;1.67;1.13;;;2.80;99.90;;;;;;5073095;28;20253;-79
2022/01/12 02:36:28;;;;;;;0.60;0.57;;;2.50;99.90;;;;;;5072359;28;20301;-80
2022/01/12 02:41:44;;;;;;;2.30;0.75;;;2.50;99.90;;;;;;5072397;28;20193;-78
2022/01/12 02:55:11;;;;;;;0.85;0.85;;;2.70;99.90;;;;;;5072426;28;20181;-80
2022/01/12 02:57:37;;;;;;;0.70;0.70;;;2.70;99.90;;;;;;5073577;28;20209;-79
2022/01/12 03:00:09;;;;;;;0.50;0.40;;;2.80;99.90;;;;;;5072456;28;20233;-79
2022/01/12 03:02:38;;;;;;;0.50;0.50;;;2.80;99.90;;;;;;5073636;28;20197;-79
2022/01/12 03:08:03;;;;;;;4.40;2.15;;;2.80;99.90;;;;;;5104213;27;1301532;-77
2022/01/12 03:10:30;;;;;;;0.50;0.40;;;2.80;99.90;;;;;;5126380;28;20223;-77
2022/01/12 03:12:56;;;;;;;0.50;0.40;;;2.80;99.90;;;;;;5130399;28;20176;-78
2022/01/12 03:15:23;;;;;;;0.77;0.70;;;2.80;99.90;;;;;;5130160;28;20685;-77
2022/01/12 03:17:50;;;;;;;0.50;0.40;;;2.80;99.90;;;;;;5130554;28;20195;-77
2022/01/12 03:20:16;;;;;;;0.50;0.40;;;2.80;99.90;;;;;;5130239;28;20199;-78
2022/01/12 03:22:44;;;;;;;1.73;1.48;;;2.80;99.90;;;;;;5130334;28;20210;-78
2022/01/12 03:25:13;;;;;;;0.50;0.40;;;2.80;99.90;;;;;;5130707;28;20196;-77
2022/01/12 03:27:39;;;;;;;0.50;0.50;;;2.80;99.90;;;;;;5129980;28;20215;-77
2022/01/12 03:30:07;;;;;;;0.50;0.40;;;2.80;99.90;;;;;;5131005;28;20538;-80
2022/01/12 03:32:39;;;;;;;0.50;0.50;;;2.90;99.90;;;;;;5130956;27;20695;-76
2022/01/12 03:35:11;;;;;;;0.50;0.40;;;2.90;99.90;;;;;;5130006;28;20199;-78
2022/01/12 03:37:53;;;;;;;1.95;1.40;;;3.00;99.90;;;;;;5129494;28;20754;-77
2022/01/12 03:40:22;;;;;;;0.60;0.60;;;3.00;99.90;;;;;;5129456;28;20213;-78
2022/01/12 03:42:49;;;;;;;1.38;1.27;;;3.10;99.90;;;;;;5130068;28;20203;-78
2022/01/12 03:45:16;;;;;;;0.70;0.70;;;3.10;99.90;;;;;;5129595;27;20684;-78
2022/01/12 03:47:43;;;;;;;1.25;1.25;;;3.10;99.90;;;;;;5129985;27;20247;-77
2022/01/12 03:50:09;;;;;;;0.50;0.40;;;3.10;99.90;;;;;;5158290;22;20329;-80
2022/01/12 03:52:36;;;;;;;2.78;2.67;;;3.10;99.90;;;;;;5040368;28;20202;-79
2022/01/12 03:55:03;;;;;;;1.48;1.45;;;3.10;99.90;;;;;;5052830;28;20199;-80
2022/01/12 03:57:31;;;;;;;0.50;0.40;;;3.10;99.90;;;;;;5051612;28;20665;-83
2022/01/12 03:59:58;;;;;;;1.48;1.30;;;3.10;99.90;;;;;;5051227;28;20215;-78
2022/01/12 04:02:25;;;;;;;2.05;1.45;;;3.10;99.90;;;;;;5053674;28;20209;-81
2022/01/12 04:05:10;;;;;;;0.50;0.40;;;3.10;99.90;;;;;;5051680;28;20691;-81
2022/01/12 04:10:21;;;;;;;0.98;0.95;;;3.10;99.90;;;;;;5051721;28;20769;-81
2022/01/12 04:12:49;;;;;;;0.50;0.50;;;3.10;99.90;;;;;;5051828;28;20217;-81
2022/01/12 04:15:16;;;;;;;0.52;0.50;;;3.10;99.90;;;;;;5051786;28;20206;-79
2022/01/12 04:17:43;;;;;;;0.60;0.52;;;3.10;99.90;;;;;;5047591;28;20218;-81
2022/01/12 04:20:10;;;;;;;1.67;1.20;;;3.10;99.90;;;;;;5038995;28;20581;-81
2022/01/12 04:25:24;;;;;;;0.55;0.40;;;3.10;99.90;;;;;;5038444;28;20893;-81
2022/01/12 04:27:53;;;;;;;3.67;2.22;;;3.20;99.90;;;;;;5038580;28;20585;-81
2022/01/12 04:30:20;;;;;;;0.50;0.40;;;3.20;99.90;;;;;;5037746;28;20573;-81
2022/01/12 04:32:46;;;;;;;1.60;1.50;;;3.30;99.90;;;;;;5038234;28;20195;-81
2022/01/12 04:35:14;;;;;;;0.85;0.85;;;3.30;99.90;;;;;;5038574;28;20298;-79
2022/01/12 04:37:41;;;;;;;0.50;0.50;;;3.20;99.90;;;;;;5038572;28;20662;-82
2022/01/12 04:40:09;;;;;;;0.50;0.40;;;3.20;99.90;;;;;;5038150;28;20215;-81
2022/01/12 04:42:36;;;;;;;0.80;0.70;;;3.20;99.90;;;;;;5037971;28;20199;-81
2022/01/12 04:45:17;;;;;;;1.70;1.60;;;3.20;99.90;;;;;;5038234;28;20195;-81
2022/01/12 04:48:01;;;;;;;3.30;3.10;;;3.10;99.90;;;;;;5038506;28;20211;-81
2022/01/12 04:50:29;;;;;;;0.60;0.50;;;3.10;99.90;;;;;;5038030;28;20223;-78
2022/01/12 04:52:57;;;;;;;0.50;0.43;;;3.10;99.90;;;;;;5037929;28;20196;-80
2022/01/12 04:55:24;;;;;;;3.38;1.52;;;3.10;99.90;;;;;;5038075;28;20207;-80
2022/01/12 04:57:50;;;;;;;0.50;0.40;;;3.10;99.90;;;;;;5038492;28;20197;-80
2022/01/12 05:00:19;;;;;;;1.80;1.70;;;3.10;99.90;;;;;;5044421;28;20215;-79
2022/01/12 05:08:20;;;;;;;1.17;1.08;;;3.10;99.90;;;;;;5037272;28;20198;-79
2022/01/12 05:13:32;;;;;;;1.13;1.08;;;3.10;99.90;;;;;;5038693;28;20254;-80
2022/01/12 05:16:01;;;;;;;2.05;1.95;;;3.10;99.90;;;;;;5037223;28;20192;-80
2022/01/12 05:18:28;;;;;;;0.50;0.40;;;3.10;99.90;;;;;;5037571;28;20218;-80
2022/01/12 05:20:55;;;;;;;0.80;0.60;;;3.10;99.90;;;;;;5037041;28;20216;-80
2022/01/12 05:23:21;;;;;;;2.55;0.75;;;3.20;99.90;;;;;;5036672;28;20195;-80
2022/01/12 05:25:48;;;;;;;1.05;1.05;;;3.20;99.90;;;;;;5036927;28;20210;-80
2022/01/12 05:28:16;;;;;;;1.92;1.77;;;3.10;99.90;;;;;;5037372;28;20207;-79
2022/01/12 05:30:43;;;;;;;0.60;0.57;;;3.10;99.90;;;;;;5036699;28;20225;-80
2022/01/12 05:33:12;;;;;;;1.67;1.58;;;3.10;99.90;;;;;;5037057;28;20205;-80
2022/01/12 05:35:39;;;;;;;0.50;0.40;;;3.10;99.90;;;;;;5036850;28;20309;-77
2022/01/12 05:38:08;;;;;;;0.90;0.90;;;3.10;99.90;;;;;;5036768;28;20195;-80
2022/01/12 05:40:35;;;;;;;0.85;0.70;;;3.10;99.90;;;;;;5036465;28;20215;-80
2022/01/12 05:43:02;;;;;;;0.70;0.70;;;3.10;99.90;;;;;;5036466;28;20691;-80
2022/01/12 05:45:32;;;;;;;3.03;2.83;;;3.10;99.90;;;;;;5036967;28;20200;-80
2022/01/12 05:50:46;;;;;;;5.57;2.58;;;3.10;99.90;;;;;;5036174;28;20272;-80
2022/01/12 05:53:14;;;;;;;0.50;0.50;;;3.10;99.90;;;;;;5036878;28;20196;-80
2022/01/12 05:55:40;;;;;;;1.75;1.55;;;3.10;99.90;;;;;;5036269;28;20195;-80
2022/01/12 05:58:07;;;;;;;0.50;0.40;;;3.10;99.90;;;;;;5036370;28;20198;-81
2022/01/12 06:00:34;;;;;;;1.15;1.15;;;3.00;99.90;;;;;;5035949;28;20222;-80
2022/01/12 06:03:01;;;;;;;1.33;1.23;;;3.00;99.90;;;;;;5036539;28;20198;-80
2022/01/12 06:05:28;;;;;;;1.83;1.38;;;3.00;99.90;;;;;;5036245;28;20210;-81
2022/01/12 06:07:56;;;;;;;3.28;1.50;;;3.10;99.90;;;;;;5037046;28;20222;-80
2022/01/12 06:10:23;;;;;;;1.40;1.33;;;3.10;99.90;;;;;;5035207;28;20215;-80
2022/01/12 06:12:50;;;;;;;1.90;1.80;;;3.10;99.90;;;;;;5037473;28;20582;-80
2022/01/12 06:15:17;;;;;;;0.50;0.40;;;3.10;99.90;;;;;;5036610;28;20199;-80
2022/01/12 06:17:44;;;;;;;0.95;0.75;;;3.10;99.90;;;;;;5036815;28;20188;-81
2022/01/12 06:20:11;;;;;;;0.90;0.90;;;3.20;99.90;;;;;;5035199;28;20216;-80
2022/01/12 06:22:38;;;;;;;0.50;0.40;;;3.20;99.90;;;;;;5035732;28;20199;-80
2022/01/12 06:25:12;;;;;;;0.50;0.40;;;3.20;99.90;;;;;;5036369;28;20661;-79
2022/01/12 06:27:48;;;;;;;1.45;1.45;;;3.20;99.90;;;;;;5036090;28;20199;-77
2022/01/12 06:31:10;;;;;;;2.40;2.22;;;3.20;99.90;;;;;;5036063;28;20215;-81
2022/01/12 06:33:03;;;;;;;0.98;0.98;;;3.20;99.90;;;;;;5039623;28;20286;-80
2022/01/12 06:35:29;;;;;;;2.15;1.50;;;3.20;99.90;;;;;;5038580;28;20566;-82
2022/01/12 06:37:56;;;;;;;0.50;0.40;;;3.20;99.90;;;;;;5036657;28;20202;-81
2022/01/12 06:40:24;;;;;;;0.50;0.50;;;3.20;99.90;;;;;;5036466;28;20589;-81
2022/01/12 06:42:51;;;;;;;0.65;0.52;;;3.20;99.90;;;;;;5036203;28;20565;-79
2022/01/12 06:45:18;;;;;;;2.25;2.15;;;3.20;99.90;;;;;;5035871;28;20250;-79
2022/01/12 06:47:45;;;;;;;2.25;1.80;;;3.30;99.90;;;;;;5035307;28;20302;-81
2022/01/12 06:50:12;;;;;;;1.10;1.00;;;3.30;99.90;;;;;;5035673;28;20275;-80
2022/01/12 06:52:38;;;;;;;3.60;1.98;;;3.30;99.90;;;;;;5035644;28;20202;-79
2022/01/12 06:55:06;;;;;;;0.82;0.80;;;3.30;99.90;;;;;;5035149;28;20199;-79
2022/01/12 06:57:34;;;;;;;4.50;4.10;;;3.30;99.90;;;;;;5035929;28;20202;-79
2022/01/12 07:00:01;;;;;;;2.08;1.42;;;3.30;99.90;;;;;;5034940;28;20222;-80
2022/01/12 07:02:28;;;;;;;2.95;2.75;;;3.30;99.90;;;;;;5035562;28;20207;-80
2022/01/12 07:04:54;;;;;;;3.13;1.55;;;3.30;99.90;;;;;;5036192;28;20199;-79
2022/01/12 07:07:23;;;;;;;1.30;1.30;;;3.30;99.90;;;;;;5028280;28;20586;-80
2022/01/12 07:09:49;;;;;;;2.67;2.47;;;3.30;99.90;;;;;;5015689;28;20279;-80
2022/01/12 07:12:16;;;;;;;0.70;0.70;;;3.30;99.90;;;;;;5015865;28;20207;-80
2022/01/12 07:14:44;;;;;;;0.60;0.60;;;3.30;99.90;;;;;;5021730;28;20248;-81
2022/01/12 07:17:13;;;;;;;4.13;1.70;;;3.30;99.90;;;;;;5027063;28;20192;-81
2022/01/12 07:19:40;;;;;;;1.50;1.42;;;3.30;99.90;;;;;;5016748;28;20669;-80
2022/01/12 07:22:07;;;;;;;0.50;0.40;;;3.30;99.90;;;;;;5016048;28;20569;-80
2022/01/12 07:24:34;;;;;;;0.50;0.50;;;3.30;99.90;;;;;;5015559;28;20231;-78
2022/01/12 07:27:01;;;;;;;1.80;1.67;;;3.40;99.90;;;;;;5024256;28;20569;-81
2022/01/12 07:29:27;;;;;;;0.50;0.40;;;3.40;99.90;;;;;;5025445;28;20222;-79
2022/01/12 07:31:55;;;;;;;0.50;0.40;;;3.40;99.90;;;;;;5016699;28;20204;-81
2022/01/12 07:34:22;;;;;;;0.50;0.40;;;3.40;99.90;;;;;;5016405;28;20211;-80
2022/01/12 07:36:49;;;;;;;1.00;0.95;;;3.50;99.90;;;;;;5016186;28;20204;-81
2022/01/12 07:39:16;;;;;;;0.50;0.40;;;3.50;99.90;;;;;;5021418;28;20192;-78
2022/01/12 07:41:43;;;;;;;1.75;1.65;;;3.60;99.90;;;;;;5046658;28;20219;-80
2022/01/12 07:44:10;;;;;;;0.60;0.60;;;3.60;99.90;;;;;;5038804;28;20278;-80
2022/01/12 07:46:37;;;;;;;0.50;0.40;;;3.60;99.90;;;;;;5020543;28;20211;-80
2022/01/12 07:49:05;;;;;;;0.50;0.40;;;3.60;99.90;;;;;;5018992;28;20378;-81
2022/01/12 07:51:32;;;;;;;0.50;0.50;;;3.60;99.90;;;;;;5016611;28;20700;-81
2022/01/12 07:53:58;;;;;;;0.50;0.40;;;3.60;99.90;;;;;;5017982;28;20547;-83
2022/01/12 07:56:25;;;;;;;2.05;0.65;;;3.60;99.90;;;;;;5019647;28;20697;-83
2022/01/12 07:58:52;;;;;;;0.50;0.43;;;3.60;99.90;;;;;;5019952;28;20198;-82
2022/01/12 08:01:19;;;;;;;0.50;0.40;;;3.70;99.90;;;;;;5020592;28;20237;-81
2022/01/12 08:03:45;;;;;;;2.45;2.05;;;3.60;99.90;;;;;;5025562;28;20200;-82
2022/01/12 08:06:13;;;;;;;0.50;0.40;;;3.50;99.90;;;;;;5028584;28;20203;-81
2022/01/12 08:08:40;;;;;;;1.77;1.65;;;3.40;99.90;;;;;;5019581;28;20222;-82
2022/01/12 08:11:07;;;;;;;0.50;0.40;;;3.40;99.90;;;;;;5018443;28;20220;-82
2022/01/12 08:13:34;;;;;;;1.33;1.23;;;3.40;99.90;;;;;;5018479;28;20206;-78
2022/01/12 08:16:00;;;;;;;0.50;0.50;;;3.40;99.90;;;;;;5019044;28;20199;-83
2022/01/12 08:18:27;;;;;;;1.40;0.98;;;3.40;99.90;;;;;;5018817;28;20192;-82
2022/01/12 08:20:54;;;;;;;10.43;1.15;;;3.30;99.90;;;;;;5018353;28;20227;-83
2022/01/12 08:23:22;;;;;;;3.65;2.80;;;3.30;99.90;;;;;;5018698;28;20665;-83
2022/01/12 08:25:49;;;;;;;3.72;3.45;;;3.30;99.90;;;;;;5017494;28;20199;-81
2022/01/12 08:28:15;;;;;;;0.73;0.73;;;3.30;99.90;;;;;;5018514;28;20224;-83
2022/01/12 08:30:42;;;;;;;0.80;0.80;;;3.30;99.90;;;;;;5017648;28;20216;-82
2022/01/12 08:33:11;;;;;;;0.57;0.57;;;3.30;99.90;;;;;;5018328;28;20192;-83
2022/01/12 08:35:37;;;;;;;2.15;1.17;;;3.20;99.90;;;;;;5017051;28;20693;-79
2022/01/12 08:38:04;;;;;;;0.50;0.40;;;3.30;99.90;;;;;;5018525;28;20203;-81
2022/01/12 08:40:32;;;;;;;5.20;4.72;;;3.40;99.90;;;;;;5017384;28;20299;-81
2022/01/12 08:42:59;;;;;;;0.75;0.75;;;3.40;99.90;;;;;;5017950;28;20200;-82
2022/01/12 08:45:26;;;;;;;0.50;0.40;;;3.40;99.90;;;;;;5017675;28;20276;-81
2022/01/12 08:47:53;;;;;;;2.28;2.17;;;3.40;99.90;;;;;;5017353;28;20219;-81
2022/01/12 08:50:20;;;;;;;3.20;3.00;;;3.40;99.90;;;;;;5017607;28;20219;-81
2022/01/12 08:52:48;;;;;;;1.10;1.10;;;3.40;99.90;;;;;;5018320;28;20196;-82
2022/01/12 08:55:17;;;;;;;0.50;0.50;;;3.40;99.90;;;;;;5017129;28;20196;-81
2022/01/12 08:57:45;;;;;;;0.50;0.50;;;3.40;99.90;;;;;;5016126;28;20192;-81
2022/01/12 09:00:13;;;;;;;0.50;0.40;;;3.50;99.90;;;;;;5017013;28;20225;-82
2022/01/12 09:02:40;;;;;;;1.50;1.23;;;3.50;99.90;;;;;;5017307;28;20569;-82
2022/01/12 09:05:08;;;;;;;0.60;0.60;;;3.40;99.90;;;;;;5020932;28;20299;-82
2022/01/12 09:07:35;;;;;;;1.15;1.15;;;3.50;99.90;;;;;;5028385;28;20203;-80
2022/01/12 09:10:03;;;;;;;0.52;0.52;;;3.50;99.90;;;;;;5021032;28;20319;-82
2022/01/12 09:12:29;;;;;;;0.50;0.40;;;3.60;99.90;;;;;;5035807;28;20207;-82
2022/01/12 09:14:58;;;;;;;0.50;0.40;;;3.60;99.90;;;;;;5036986;28;20271;-81
2022/01/12 09:17:24;;;;;;;5.75;2.67;;;3.70;99.90;;;;;;5032317;28;20192;-80
2022/01/12 09:19:53;;;;;;;0.60;0.50;;;3.70;99.90;;;;;;5017575;28;20216;-81
2022/01/12 09:22:20;;;;;;;1.85;1.75;;;3.80;99.90;;;;;;5027292;28;20192;-77
2022/01/12 09:24:49;;;;;;;3.38;2.70;;;3.70;99.90;;;;;;5027832;28;20204;-79
2022/01/12 09:27:16;;;;;;;0.50;0.40;;;3.70;99.90;;;;;;5028355;28;20192;-81
2022/01/12 09:29:44;;;;;;;1.55;1.45;;;3.70;99.90;;;;;;5036818;28;20242;-81
2022/01/12 09:32:12;;;;;;;8.85;4.97;;;3.70;99.90;;;;;;5037378;28;20203;-81
2022/01/12 09:34:39;;;;;;;2.25;1.30;;;3.60;99.90;;;;;;5036754;28;20208;-78
2022/01/12 09:37:06;;;;;;;2.03;0.98;;;3.50;99.90;;;;;;5036380;28;20195;-82
2022/01/12 09:39:34;;;;;;;0.50;0.40;;;3.60;99.90;;;;;;5035914;28;20191;-82
2022/01/12 09:42:02;;;;;;;2.38;2.28;;;3.60;99.90;;;;;;5036414;28;20295;-80
2022/01/12 09:44:32;;;;;;;0.50;0.40;;;3.60;99.90;;;;;;5036165;28;20195;-80
2022/01/12 09:47:01;;;;;;;0.50;0.40;;;3.70;99.90;;;;;;5036155;28;20191;-81
2022/01/12 09:49:30;;;;;;;0.50;0.40;;;3.80;99.90;;;;;;5035586;28;20219;-83
2022/01/12 09:51:58;;;;;;;1.13;0.50;;;3.90;99.90;;;;;;5037075;28;20569;-80
2022/01/12 09:54:27;;;;;;;2.75;2.42;;;3.90;99.90;;;;;;5037416;28;20252;-82
2022/01/12 09:56:54;;;;;;;4.05;3.80;;;3.80;99.90;;;;;;5035704;28;20229;-81
2022/01/12 09:59:22;;;;;;;0.50;0.40;;;3.80;99.90;;;;;;5035359;28;20669;-82
2022/01/12 10:01:52;;;;;;;0.50;0.40;;;3.90;99.90;;;;;;5036763;28;20215;-81
2022/01/12 10:04:21;;;;;;;1.77;1.52;;;4.00;99.90;;;;;;5035747;28;20245;-81
2022/01/12 10:06:53;;;;;;;3.00;2.67;;;4.10;99.90;;;;;;5036197;28;20294;-81
2022/01/12 10:09:25;;;;;;;1.35;1.35;;;4.10;99.90;;;;;;5036072;28;20254;-81
2022/01/12 10:11:52;;;;;;;3.70;3.40;;;4.10;99.90;;;;;;5035724;28;20215;-83
2022/01/12 10:14:19;;;;;;;1.67;1.48;;;4.10;99.90;;;;;;5035630;28;20756;-81
2022/01/12 10:16:54;;;;;;;6.38;2.90;;;4.20;99.90;;;;;;5035294;28;20608;-80
2022/01/12 10:19:28;;;;;;;1.58;1.48;;;4.20;99.90;;;;;;5035903;28;20202;-81
2022/01/12 10:21:57;;;;;;;0.50;0.40;;;4.20;99.90;;;;;;5036062;28;20628;-80
2022/01/12 10:24:25;;;;;;;2.88;2.25;;;4.20;99.90;;;;;;5035538;28;20198;-81
2022/01/12 10:26:53;;;;;;;0.60;0.60;;;4.20;99.90;;;;;;5035371;28;20214;-81
2022/01/12 10:29:22;;;;;;;1.88;1.73;;;4.20;99.90;;;;;;5035086;28;20226;-80
2022/01/12 10:31:52;;;;;;;0.50;0.50;;;4.20;99.90;;;;;;5036242;28;20211;-82
2022/01/12 10:34:21;;;;;;;0.50;0.40;;;4.10;99.90;;;;;;5035713;28;20192;-81
2022/01/12 10:36:49;;;;;;;1.55;1.45;;;4.10;99.90;;;;;;5035492;28;20668;-80
2022/01/12 10:39:19;;;;;;;0.50;0.40;;;4.20;99.90;;;;;;5034397;28;20198;-81
2022/01/12 10:41:58;;;;;;;1.00;1.00;;;4.30;99.90;;;;;;5035402;28;20226;-81
2022/01/12 10:44:27;;;;;;;0.50;0.43;;;4.30;99.90;;;;;;5035589;28;20526;-80
2022/01/12 10:47:09;;;;;;;9.48;1.67;;;4.40;99.90;;;;;;5036327;28;20203;-80
2022/01/12 10:49:37;;;;;;;0.50;0.45;;;4.40;99.90;;;;;;5036096;28;20219;-80
2022/01/12 10:52:07;;;;;;;0.55;0.55;;;4.50;99.90;;;;;;5035616;28;20195;-80
2022/01/12 10:54:44;;;;;;;1.95;1.85;;;4.60;99.90;;;;;;5035736;28;20183;-82
2022/01/12 10:57:16;;;;;;;7.30;5.65;;;4.70;99.90;;;;;;5035666;28;20668;-80
2022/01/12 10:59:46;;;;;;;0.70;0.50;;;4.70;99.90;;;;;;5034814;28;20195;-79
2022/01/12 11:02:14;;;;;;;1.98;1.40;;;4.70;99.90;;;;;;5035421;28;20206;-81
2022/01/12 11:04:42;;;;;;;12.05;1.70;;;4.70;99.90;;;;;;5034349;28;20199;-79
2022/01/12 11:07:10;;;;;;;2.50;2.35;;;4.60;99.90;;;;;;5035179;28;20680;-82
2022/01/12 11:09:38;;;;;;;0.50;0.40;;;4.60;99.90;;;;;;5034325;28;20211;-81
2022/01/12 11:12:07;;;;;;;2.70;2.60;;;4.50;99.90;;;;;;5035569;28;20195;-83
2022/01/12 11:14:34;;;;;;;0.63;0.63;;;4.60;99.90;;;;;;5035819;28;20206;-83
2022/01/12 11:17:01;;;;;;;1.83;1.73;;;4.60;99.90;;;;;;5034847;28;20195;-83
2022/01/12 11:19:29;;;;;;;0.50;0.40;;;4.60;99.90;;;;;;5034939;28;20281;-83
2022/01/12 11:22:15;;;;;;;2.15;2.05;;;4.60;99.90;;;;;;5034890;28;20202;-82
2022/01/12 11:24:42;;;;;;;2.88;2.72;;;4.60;99.90;;;;;;5035794;28;20210;-78
2022/01/12 11:27:20;;;;;;;0.88;0.88;;;4.60;99.90;;;;;;5034946;28;20305;-82
2022/01/12 11:29:47;;;;;;;0.50;0.50;;;4.50;99.90;;;;;;5039369;28;20214;-83
2022/01/12 11:32:22;;;;;;;0.50;0.40;;;4.50;99.90;;;;;;5038667;28;20281;-81
2022/01/12 11:34:59;;;;;;;0.93;0.93;;;4.50;99.90;;;;;;5038662;28;20179;-83
2022/01/12 11:37:26;;;;;;;1.05;1.05;;;4.60;99.90;;;;;;5038631;28;20214;-83
2022/01/12 11:39:52;;;;;;;3.60;1.58;;;4.60;99.90;;;;;;5038732;28;20226;-82
2022/01/12 11:42:21;;;;;;;3.55;2.08;;;4.70;99.90;;;;;;5039883;28;20191;-83
2022/01/12 11:44:47;;;;;;;0.50;0.40;;;4.70;99.90;;;;;;5039680;28;20206;-82
2022/01/12 11:47:16;;;;;;;2.25;2.17;;;4.70;99.90;;;;;;5039410;28;20203;-82
2022/01/12 11:49:44;;;;;;;0.50;0.40;;;4.70;99.90;;;;;;5039467;28;20207;-82
2022/01/12 11:52:16;;;;;;;4.22;1.77;;;4.70;99.90;;;;;;5038675;28;20711;-82
2022/01/12 11:54:47;;;;;;;4.65;3.05;;;4.80;99.90;;;;;;5039553;28;20202;-80
2022/01/12 11:57:18;;;;;;;0.85;0.77;;;4.80;99.90;;;;;;5039235;28;20218;-80
2022/01/12 11:59:54;;;;;;;0.50;0.40;;;4.90;99.90;;;;;;5038232;28;20195;-83
2022/01/12 12:02:31;;;;;;;0.60;0.60;;;4.90;99.90;;;;;;5038595;28;20199;-81
2022/01/12 12:05:01;;;;;;;1.88;1.77;;;4.90;99.90;;;;;;5038164;28;20273;-81
2022/01/12 12:07:28;;;;;;;0.60;0.57;;;4.90;99.90;;;;;;5038650;28;20701;-82
2022/01/12 12:09:57;;;;;;;3.05;1.67;;;4.90;99.90;;;;;;5037693;28;20226;-82
2022/01/12 12:12:29;;;;;;;0.90;0.90;;;5.00;99.90;;;;;;5038208;28;20192;-82
2022/01/12 12:15:00;;;;;;;0.50;0.40;;;5.00;99.90;;;;;;5037632;28;20195;-82
2022/01/12 12:17:30;;;;;;;2.55;1.48;;;5.00;99.90;;;;;;5037634;28;20645;-83
2022/01/12 12:19:57;;;;;;;0.95;0.95;;;5.00;99.90;;;;;;5036600;28;20218;-82
2022/01/12 12:22:26;;;;;;;0.70;0.70;;;5.10;99.90;;;;;;5038599;28;20195;-83
2022/01/12 12:24:56;;;;;;;0.70;0.70;;;5.00;99.90;;;;;;5037559;28;20227;-82
2022/01/12 12:27:25;;;;;;;0.50;0.40;;;5.00;99.90;;;;;;5037987;28;20573;-81
2022/01/12 12:29:52;;;;;;;0.50;0.40;;;5.10;99.90;;;;;;5037780;28;20220;-81
2022/01/12 12:32:33;;;;;;;0.50;0.40;;;5.00;99.90;;;;;;5038332;28;20199;-82
2022/01/12 12:35:01;;;;;;;0.50;0.40;;;5.00;99.90;;;;;;5037284;28;20183;-83
2022/01/12 12:37:35;;;;;;;2.97;2.88;;;5.10;99.90;;;;;;5038007;28;20283;-83
2022/01/12 12:40:16;;;;;;;0.50;0.40;;;5.10;99.90;;;;;;5036424;28;20272;-82
2022/01/12 12:42:43;;;;;;;1.27;1.17;;;5.10;99.90;;;;;;5037713;28;20199;-81
2022/01/12 12:45:10;;;;;;;6.30;2.05;;;5.20;99.90;;;;;;5037248;28;20691;-83
2022/01/12 12:47:38;;;;;;;3.65;3.53;;;5.20;99.90;;;;;;5037326;28;20207;-81
2022/01/12 12:50:12;;;;;;;0.75;0.75;;;5.20;99.90;;;;;;5037038;28;20220;-81
2022/01/12 12:52:40;;;;;;;2.58;2.38;;;5.10;99.90;;;;;;5037877;28;20187;-81
2022/01/12 12:55:12;;;;;;;0.50;0.40;;;5.00;99.90;;;;;;5037867;28;20199;-83
2022/01/12 12:57:48;;;;;;;1.48;1.48;;;4.90;99.90;;;;;;5038182;28;20202;-83
2022/01/12 13:00:18;;;;;;;1.42;1.33;;;4.90;99.90;;;;;;5036759;28;20242;-83
2022/01/12 13:02:49;;;;;;;0.98;0.98;;;4.90;99.90;;;;;;5037204;28;20206;-83
2022/01/12 13:05:19;;;;;;;1.35;1.25;;;4.90;99.90;;;;;;5037844;28;20183;-83
2022/01/12 13:07:47;;;;;;;7.20;3.78;;;4.90;99.90;;;;;;5038461;28;20199;-80
2022/01/12 13:10:16;;;;;;;3.85;3.63;;;5.00;99.90;;;;;;5036982;28;20237;-81
2022/01/12 13:12:47;;;;;;;0.88;0.88;;;4.90;99.90;;;;;;5037998;28;20206;-82
2022/01/12 13:15:23;;;;;;;1.35;1.25;;;4.90;99.90;;;;;;5038579;28;20195;-81
2022/01/12 13:17:59;;;;;;;10.88;1.92;;;4.90;99.90;;;;;;5038669;28;20553;-79
2022/01/12 13:23:13;;;;;;;0.50;0.40;;;4.80;99.90;;;;;;5036996;28;20615;-82
2022/01/12 13:25:40;;;;;;;1.40;1.30;;;4.70;99.90;;;;;;5037832;28;20691;-81
2022/01/12 13:28:06;;;;;;;1.05;1.05;;;4.70;99.90;;;;;;5037747;28;20199;-83
2022/01/12 13:30:34;;;;;;;0.50;0.40;;;4.70;99.90;;;;;;5037190;28;20636;-79
2022/01/12 13:33:04;;;;;;;0.50;0.40;;;4.70;99.90;;;;;;5037451;28;20206;-81
2022/01/12 13:35:34;;;;;;;3.90;3.65;;;4.80;99.90;;;;;;5037483;28;20195;-83
2022/01/12 13:38:03;;;;;;;2.25;2.15;;;4.80;99.90;;;;;;5037756;28;20191;-82
2022/01/12 13:40:35;;;;;;;0.60;0.60;;;4.80;99.90;;;;;;5037165;28;20588;-80
2022/01/12 13:43:03;;;;;;;0.50;0.40;;;4.80;99.90;;;;;;5038024;28;20287;-81
2022/01/12 13:45:37;;;;;;;0.50;0.50;;;4.80;99.90;;;;;;5037873;28;20230;-81
2022/01/12 13:48:12;;;;;;;10.63;10.05;;;4.80;99.90;;;;;;5037036;28;20290;-83
2022/01/12 13:50:40;;;;;;;1.13;1.13;;;4.80;99.90;;;;;;5036073;28;20341;-81
2022/01/12 13:53:07;;;;;;;0.50;0.40;;;4.80;99.90;;;;;;5036823;28;20206;-82
2022/01/12 13:55:35;;;;;;;2.55;2.45;;;4.80;99.90;;;;;;5035979;28;20196;-83
2022/01/12 13:58:05;;;;;;;0.98;0.98;;;4.80;99.90;;;;;;5036444;28;20462;-81
2022/01/12 14:00:34;;;;;;;0.50;0.40;;;4.70;99.90;;;;;;5035567;28;20212;-81
2022/01/12 14:03:01;;;;;;;0.50;0.40;;;4.80;99.90;;;;;;5036395;28;20195;-82
2022/01/12 14:05:38;;;;;;;0.50;0.40;;;4.80;99.90;;;;;;5035986;28;20191;-81
2022/01/12 14:08:12;;;;;;;1.55;1.52;;;4.80;99.90;;;;;;5035525;28;20215;-83
2022/01/12 14:10:42;;;;;;;1.33;0.88;;;4.80;99.90;;;;;;5035146;28;20231;-84
2022/01/12 14:13:09;;;;;;;0.50;0.40;;;4.80;99.90;;;;;;5036059;28;20218;-81
2022/01/12 14:15:36;;;;;;;0.50;0.50;;;4.80;99.90;;;;;;5036414;28;20210;-81
2022/01/12 14:18:05;;;;;;;0.50;0.40;;;4.90;99.90;;;;;;5036800;28;20202;-82
2022/01/12 14:20:36;;;;;;;3.80;1.40;;;4.90;99.90;;;;;;5037190;28;20215;-79